sensor_id;sensor_type;location;lat;lon;timestamp;P1;durP1;ratioP1;P2;durP2;ratioP2
36243;SDS011;22284;49.956;19.816;2022-07-24T00:01:43;27.32;;;19.77;;
36243;SDS011;22284;49.956;19.816;2022-07-24T00:04:44;27.00;;;19.35;;
36243;SDS011;22284;49.956;19.816;2022-07-24T00:07:45;26.50;;;18.92;;
36243;SDS011;22284;49.956;19.816;2022-07-24T00:10:46;23.92;;;18.12;;
36243;SDS011;22284;49.956;19.816;2022-07-24T00:13:47;27.05;;;18.20;;
36243;SDS011;22284;49.956;19.816;2022-07-24T00:16:48;29.30;;;18.80;;
36243;SDS011;22284;49.956;19.816;2022-07-24T00:19:49;28.00;;;18.77;;
36243;SDS011;22284;49.956;19.816;2022-07-24T00:22:50;26.82;;;17.92;;
36243;SDS011;22284;49.956;19.816;2022-07-24T00:25:51;25.27;;;18.15;;
36243;SDS011;22284;49.956;19.816;2022-07-24T00:28:53;24.87;;;17.57;;
36243;SDS011;22284;49.956;19.816;2022-07-24T00:31:54;24.40;;;18.80;;
36243;SDS011;22284;49.956;19.816;2022-07-24T00:34:55;26.45;;;18.45;;
36243;SDS011;22284;49.956;19.816;2022-07-24T00:37:56;24.82;;;18.02;;
36243;SDS011;22284;49.956;19.816;2022-07-24T00:40:57;25.55;;;19.32;;
36243;SDS011;22284;49.956;19.816;2022-07-24T00:47:14;26.57;;;19.30;;
36243;SDS011;22284;49.956;19.816;2022-07-24T00:50:15;28.70;;;20.23;;
36243;SDS011;22284;49.956;19.816;2022-07-24T00:53:17;28.67;;;19.15;;
36243;SDS011;22284;49.956;19.816;2022-07-24T00:56:18;27.60;;;20.10;;
36243;SDS011;22284;49.956;19.816;2022-07-24T00:59:19;25.30;;;19.07;;
36243;SDS011;22284;49.956;19.816;2022-07-24T01:02:21;26.80;;;20.23;;
36243;SDS011;22284;49.956;19.816;2022-07-24T01:05:23;25.80;;;19.77;;
36243;SDS011;22284;49.956;19.816;2022-07-24T01:08:24;26.07;;;19.07;;
36243;SDS011;22284;49.956;19.816;2022-07-24T01:11:25;26.62;;;19.77;;
36243;SDS011;22284;49.956;19.816;2022-07-24T01:14:27;28.42;;;20.37;;
36243;SDS011;22284;49.956;19.816;2022-07-24T01:17:38;27.15;;;20.23;;
36243;SDS011;22284;49.956;19.816;2022-07-24T01:20:39;28.57;;;20.45;;
36243;SDS011;22284;49.956;19.816;2022-07-24T01:23:40;28.20;;;20.00;;
36243;SDS011;22284;49.956;19.816;2022-07-24T01:26:41;29.23;;;21.85;;
36243;SDS011;22284;49.956;19.816;2022-07-24T01:29:42;29.07;;;21.52;;
36243;SDS011;22284;49.956;19.816;2022-07-24T01:32:43;28.12;;;21.73;;
36243;SDS011;22284;49.956;19.816;2022-07-24T01:35:44;30.05;;;22.42;;
36243;SDS011;22284;49.956;19.816;2022-07-24T01:38:46;32.23;;;22.27;;
36243;SDS011;22284;49.956;19.816;2022-07-24T01:41:47;32.00;;;23.35;;
36243;SDS011;22284;49.956;19.816;2022-07-24T01:44:48;29.72;;;22.87;;
36243;SDS011;22284;49.956;19.816;2022-07-24T01:47:49;31.93;;;23.42;;
36243;SDS011;22284;49.956;19.816;2022-07-24T01:50:50;32.23;;;23.75;;
36243;SDS011;22284;49.956;19.816;2022-07-24T01:53:51;36.48;;;25.08;;
36243;SDS011;22284;49.956;19.816;2022-07-24T01:56:52;36.17;;;24.45;;
36243;SDS011;22284;49.956;19.816;2022-07-24T01:59:53;34.30;;;25.27;;
36243;SDS011;22284;49.956;19.816;2022-07-24T02:02:55;34.92;;;25.20;;
36243;SDS011;22284;49.956;19.816;2022-07-24T02:05:56;36.53;;;26.55;;
36243;SDS011;22284;49.956;19.816;2022-07-24T02:08:57;35.78;;;26.55;;
36243;SDS011;22284;49.956;19.816;2022-07-24T02:11:58;39.13;;;28.23;;
36243;SDS011;22284;49.956;19.816;2022-07-24T02:14:59;35.65;;;26.60;;
36243;SDS011;22284;49.956;19.816;2022-07-24T02:18:00;37.88;;;27.30;;
36243;SDS011;22284;49.956;19.816;2022-07-24T02:21:02;38.33;;;28.00;;
36243;SDS011;22284;49.956;19.816;2022-07-24T02:24:03;40.45;;;29.48;;
36243;SDS011;22284;49.956;19.816;2022-07-24T02:27:05;43.53;;;31.37;;
36243;SDS011;22284;49.956;19.816;2022-07-24T02:30:07;42.13;;;31.07;;
36243;SDS011;22284;49.956;19.816;2022-07-24T02:33:12;41.83;;;31.02;;
36243;SDS011;22284;49.956;19.816;2022-07-24T02:36:13;39.75;;;31.42;;
36243;SDS011;22284;49.956;19.816;2022-07-24T02:39:14;39.13;;;29.90;;
36243;SDS011;22284;49.956;19.816;2022-07-24T02:42:15;38.67;;;28.38;;
36243;SDS011;22284;49.956;19.816;2022-07-24T02:45:16;37.13;;;29.15;;
36243;SDS011;22284;49.956;19.816;2022-07-24T02:48:19;37.25;;;28.35;;
36243;SDS011;22284;49.956;19.816;2022-07-24T02:51:20;39.30;;;30.37;;
36243;SDS011;22284;49.956;19.816;2022-07-24T02:54:21;36.93;;;27.55;;
36243;SDS011;22284;49.956;19.816;2022-07-24T02:57:22;37.08;;;27.45;;
36243;SDS011;22284;49.956;19.816;2022-07-24T03:00:23;34.08;;;26.45;;
36243;SDS011;22284;49.956;19.816;2022-07-24T03:03:24;34.70;;;26.95;;
36243;SDS011;22284;49.956;19.816;2022-07-24T03:06:25;29.90;;;22.75;;
36243;SDS011;22284;49.956;19.816;2022-07-24T03:09:26;34.38;;;26.17;;
36243;SDS011;22284;49.956;19.816;2022-07-24T03:12:27;31.68;;;24.92;;
36243;SDS011;22284;49.956;19.816;2022-07-24T03:15:28;33.92;;;25.72;;
36243;SDS011;22284;49.956;19.816;2022-07-24T03:18:29;29.87;;;22.60;;
36243;SDS011;22284;49.956;19.816;2022-07-24T03:21:30;26.97;;;20.92;;
36243;SDS011;22284;49.956;19.816;2022-07-24T03:24:31;27.02;;;19.42;;
36243;SDS011;22284;49.956;19.816;2022-07-24T03:27:32;26.48;;;18.92;;
36243;SDS011;22284;49.956;19.816;2022-07-24T03:30:33;26.10;;;19.70;;
36243;SDS011;22284;49.956;19.816;2022-07-24T03:33:34;29.37;;;21.35;;
36243;SDS011;22284;49.956;19.816;2022-07-24T03:36:35;29.02;;;21.93;;
36243;SDS011;22284;49.956;19.816;2022-07-24T03:39:36;28.83;;;21.70;;
36243;SDS011;22284;49.956;19.816;2022-07-24T03:42:37;28.70;;;19.98;;
36243;SDS011;22284;49.956;19.816;2022-07-24T03:45:38;29.15;;;21.05;;
36243;SDS011;22284;49.956;19.816;2022-07-24T03:48:39;30.27;;;21.37;;
36243;SDS011;22284;49.956;19.816;2022-07-24T03:51:40;27.82;;;20.55;;
36243;SDS011;22284;49.956;19.816;2022-07-24T03:54:41;28.87;;;22.17;;
36243;SDS011;22284;49.956;19.816;2022-07-24T03:57:42;30.45;;;21.87;;
36243;SDS011;22284;49.956;19.816;2022-07-24T04:00:43;30.12;;;22.52;;
36243;SDS011;22284;49.956;19.816;2022-07-24T04:03:44;29.20;;;21.70;;
36243;SDS011;22284;49.956;19.816;2022-07-24T04:06:45;33.20;;;21.50;;
36243;SDS011;22284;49.956;19.816;2022-07-24T04:09:47;28.62;;;21.30;;
36243;SDS011;22284;49.956;19.816;2022-07-24T04:12:48;29.27;;;20.90;;
36243;SDS011;22284;49.956;19.816;2022-07-24T04:15:49;26.27;;;17.95;;
36243;SDS011;22284;49.956;19.816;2022-07-24T04:18:50;27.50;;;17.27;;
36243;SDS011;22284;49.956;19.816;2022-07-24T04:21:51;22.90;;;15.28;;
36243;SDS011;22284;49.956;19.816;2022-07-24T04:24:52;23.15;;;15.32;;
36243;SDS011;22284;49.956;19.816;2022-07-24T04:27:52;21.02;;;14.90;;
36243;SDS011;22284;49.956;19.816;2022-07-24T04:30:53;22.58;;;14.47;;
36243;SDS011;22284;49.956;19.816;2022-07-24T04:33:54;23.52;;;14.90;;
36243;SDS011;22284;49.956;19.816;2022-07-24T04:36:55;20.52;;;13.90;;
36243;SDS011;22284;49.956;19.816;2022-07-24T04:39:56;22.70;;;14.15;;
36243;SDS011;22284;49.956;19.816;2022-07-24T04:42:57;20.75;;;14.47;;
36243;SDS011;22284;49.956;19.816;2022-07-24T04:45:58;20.77;;;14.13;;
36243;SDS011;22284;49.956;19.816;2022-07-24T04:49:00;21.52;;;14.10;;
36243;SDS011;22284;49.956;19.816;2022-07-24T04:52:00;20.17;;;13.93;;
36243;SDS011;22284;49.956;19.816;2022-07-24T04:55:02;23.50;;;14.50;;
36243;SDS011;22284;49.956;19.816;2022-07-24T04:58:03;20.88;;;14.63;;
36243;SDS011;22284;49.956;19.816;2022-07-24T05:01:04;25.97;;;14.87;;
36243;SDS011;22284;49.956;19.816;2022-07-24T05:04:05;21.10;;;13.70;;
36243;SDS011;22284;49.956;19.816;2022-07-24T05:07:06;20.32;;;12.58;;
36243;SDS011;22284;49.956;19.816;2022-07-24T05:10:07;19.55;;;12.55;;
36243;SDS011;22284;49.956;19.816;2022-07-24T05:13:09;19.30;;;13.30;;
36243;SDS011;22284;49.956;19.816;2022-07-24T05:16:10;18.27;;;12.40;;
36243;SDS011;22284;49.956;19.816;2022-07-24T05:19:11;18.62;;;12.03;;
36243;SDS011;22284;49.956;19.816;2022-07-24T05:22:12;20.72;;;12.82;;
36243;SDS011;22284;49.956;19.816;2022-07-24T05:25:13;19.12;;;12.07;;
36243;SDS011;22284;49.956;19.816;2022-07-24T05:28:14;16.90;;;11.30;;
36243;SDS011;22284;49.956;19.816;2022-07-24T05:31:15;15.90;;;10.95;;
36243;SDS011;22284;49.956;19.816;2022-07-24T05:34:16;16.57;;;11.15;;
36243;SDS011;22284;49.956;19.816;2022-07-24T05:37:17;17.55;;;10.75;;
36243;SDS011;22284;49.956;19.816;2022-07-24T05:40:18;16.27;;;10.80;;
36243;SDS011;22284;49.956;19.816;2022-07-24T05:43:19;15.28;;;10.35;;
36243;SDS011;22284;49.956;19.816;2022-07-24T05:46:20;16.95;;;10.10;;
36243;SDS011;22284;49.956;19.816;2022-07-24T05:49:21;15.40;;;9.93;;
36243;SDS011;22284;49.956;19.816;2022-07-24T05:52:22;16.67;;;9.75;;
36243;SDS011;22284;49.956;19.816;2022-07-24T05:55:23;13.32;;;9.68;;
36243;SDS011;22284;49.956;19.816;2022-07-24T05:58:24;17.80;;;9.83;;
36243;SDS011;22284;49.956;19.816;2022-07-24T06:01:25;15.72;;;9.43;;
36243;SDS011;22284;49.956;19.816;2022-07-24T06:04:26;14.28;;;10.13;;
36243;SDS011;22284;49.956;19.816;2022-07-24T06:07:27;13.68;;;9.33;;
36243;SDS011;22284;49.956;19.816;2022-07-24T06:10:29;12.93;;;9.10;;
36243;SDS011;22284;49.956;19.816;2022-07-24T06:13:32;13.40;;;9.15;;
36243;SDS011;22284;49.956;19.816;2022-07-24T06:16:33;15.05;;;8.93;;
36243;SDS011;22284;49.956;19.816;2022-07-24T06:19:34;14.83;;;8.60;;
36243;SDS011;22284;49.956;19.816;2022-07-24T06:22:35;14.90;;;8.73;;
36243;SDS011;22284;49.956;19.816;2022-07-24T06:25:36;13.32;;;7.95;;
36243;SDS011;22284;49.956;19.816;2022-07-24T06:28:37;17.92;;;8.30;;
36243;SDS011;22284;49.956;19.816;2022-07-24T06:31:38;13.20;;;9.03;;
36243;SDS011;22284;49.956;19.816;2022-07-24T06:34:39;12.15;;;7.70;;
36243;SDS011;22284;49.956;19.816;2022-07-24T06:37:40;16.85;;;8.23;;
36243;SDS011;22284;49.956;19.816;2022-07-24T06:40:42;10.68;;;7.45;;
36243;SDS011;22284;49.956;19.816;2022-07-24T06:43:43;14.10;;;8.60;;
36243;SDS011;22284;49.956;19.816;2022-07-24T06:46:44;12.65;;;8.05;;
36243;SDS011;22284;49.956;19.816;2022-07-24T06:49:45;10.28;;;7.17;;
36243;SDS011;22284;49.956;19.816;2022-07-24T06:52:46;12.25;;;7.60;;
36243;SDS011;22284;49.956;19.816;2022-07-24T06:55:47;12.95;;;6.65;;
36243;SDS011;22284;49.956;19.816;2022-07-24T06:58:48;9.90;;;6.17;;
36243;SDS011;22284;49.956;19.816;2022-07-24T07:01:49;9.05;;;5.40;;
36243;SDS011;22284;49.956;19.816;2022-07-24T07:04:50;7.30;;;4.10;;
36243;SDS011;22284;49.956;19.816;2022-07-24T07:07:51;7.85;;;4.20;;
36243;SDS011;22284;49.956;19.816;2022-07-24T07:10:52;6.30;;;4.03;;
36243;SDS011;22284;49.956;19.816;2022-07-24T07:13:53;6.53;;;4.37;;
36243;SDS011;22284;49.956;19.816;2022-07-24T07:16:54;7.72;;;3.70;;
36243;SDS011;22284;49.956;19.816;2022-07-24T07:19:54;6.65;;;3.87;;
36243;SDS011;22284;49.956;19.816;2022-07-24T07:22:55;7.97;;;4.10;;
36243;SDS011;22284;49.956;19.816;2022-07-24T07:25:56;5.37;;;3.85;;
36243;SDS011;22284;49.956;19.816;2022-07-24T07:28:57;5.53;;;3.40;;
36243;SDS011;22284;49.956;19.816;2022-07-24T07:31:58;5.87;;;3.80;;
36243;SDS011;22284;49.956;19.816;2022-07-24T07:34:59;8.30;;;4.15;;
36243;SDS011;22284;49.956;19.816;2022-07-24T07:38:00;6.90;;;3.70;;
36243;SDS011;22284;49.956;19.816;2022-07-24T07:41:01;7.28;;;4.08;;
36243;SDS011;22284;49.956;19.816;2022-07-24T07:44:02;7.65;;;4.03;;
36243;SDS011;22284;49.956;19.816;2022-07-24T07:47:04;4.70;;;3.67;;
36243;SDS011;22284;49.956;19.816;2022-07-24T07:50:05;7.37;;;3.98;;
36243;SDS011;22284;49.956;19.816;2022-07-24T07:56:09;7.28;;;3.62;;
36243;SDS011;22284;49.956;19.816;2022-07-24T07:59:10;6.05;;;3.70;;
36243;SDS011;22284;49.956;19.816;2022-07-24T08:02:11;6.70;;;4.03;;
36243;SDS011;22284;49.956;19.816;2022-07-24T08:05:12;5.28;;;3.90;;
36243;SDS011;22284;49.956;19.816;2022-07-24T08:08:13;6.58;;;4.00;;
36243;SDS011;22284;49.956;19.816;2022-07-24T08:11:14;5.55;;;3.60;;
36243;SDS011;22284;49.956;19.816;2022-07-24T08:14:15;9.00;;;4.08;;
36243;SDS011;22284;49.956;19.816;2022-07-24T08:17:16;7.35;;;3.87;;
36243;SDS011;22284;49.956;19.816;2022-07-24T08:20:17;8.33;;;4.33;;
36243;SDS011;22284;49.956;19.816;2022-07-24T08:23:20;6.87;;;4.20;;
36243;SDS011;22284;49.956;19.816;2022-07-24T08:26:21;7.87;;;4.10;;
36243;SDS011;22284;49.956;19.816;2022-07-24T08:29:22;5.35;;;4.28;;
36243;SDS011;22284;49.956;19.816;2022-07-24T08:32:23;5.45;;;4.80;;
36243;SDS011;22284;49.956;19.816;2022-07-24T08:35:24;7.80;;;4.22;;
36243;SDS011;22284;49.956;19.816;2022-07-24T08:38:25;9.40;;;4.40;;
36243;SDS011;22284;49.956;19.816;2022-07-24T08:41:27;6.25;;;4.45;;
36243;SDS011;22284;49.956;19.816;2022-07-24T08:44:35;6.60;;;4.67;;
36243;SDS011;22284;49.956;19.816;2022-07-24T08:47:38;7.65;;;4.67;;
36243;SDS011;22284;49.956;19.816;2022-07-24T08:50:41;7.47;;;4.53;;
36243;SDS011;22284;49.956;19.816;2022-07-24T08:53:44;7.65;;;4.80;;
36243;SDS011;22284;49.956;19.816;2022-07-24T08:56:47;6.85;;;5.10;;
36243;SDS011;22284;49.956;19.816;2022-07-24T08:59:48;7.33;;;5.33;;
36243;SDS011;22284;49.956;19.816;2022-07-24T09:02:49;6.87;;;4.85;;
36243;SDS011;22284;49.956;19.816;2022-07-24T09:05:54;5.65;;;4.37;;
36243;SDS011;22284;49.956;19.816;2022-07-24T09:09:00;7.05;;;4.28;;
36243;SDS011;22284;49.956;19.816;2022-07-24T09:15:10;8.15;;;4.37;;
36243;SDS011;22284;49.956;19.816;2022-07-24T09:18:24;6.10;;;4.35;;
36243;SDS011;22284;49.956;19.816;2022-07-24T09:21:31;4.95;;;4.08;;
36243;SDS011;22284;49.956;19.816;2022-07-24T09:24:37;8.78;;;4.78;;
36243;SDS011;22284;49.956;19.816;2022-07-24T09:27:39;6.10;;;4.47;;
36243;SDS011;22284;49.956;19.816;2022-07-24T09:31:00;4.78;;;3.80;;
36243;SDS011;22284;49.956;19.816;2022-07-24T09:34:09;5.87;;;4.30;;
36243;SDS011;22284;49.956;19.816;2022-07-24T09:37:10;4.72;;;4.12;;
36243;SDS011;22284;49.956;19.816;2022-07-24T09:40:13;7.58;;;4.58;;
36243;SDS011;22284;49.956;19.816;2022-07-24T09:46:33;7.20;;;4.30;;
36243;SDS011;22284;49.956;19.816;2022-07-24T09:49:35;7.87;;;4.50;;
36243;SDS011;22284;49.956;19.816;2022-07-24T09:52:37;10.75;;;4.53;;
36243;SDS011;22284;49.956;19.816;2022-07-24T09:55:43;7.30;;;4.50;;
36243;SDS011;22284;49.956;19.816;2022-07-24T10:01:52;6.17;;;4.58;;
36243;SDS011;22284;49.956;19.816;2022-07-24T10:04:53;6.60;;;5.10;;
36243;SDS011;22284;49.956;19.816;2022-07-24T10:07:56;7.08;;;4.92;;
36243;SDS011;22284;49.956;19.816;2022-07-24T10:10:59;8.15;;;5.00;;
36243;SDS011;22284;49.956;19.816;2022-07-24T10:14:01;9.03;;;5.55;;
36243;SDS011;22284;49.956;19.816;2022-07-24T10:17:06;8.33;;;5.50;;
36243;SDS011;22284;49.956;19.816;2022-07-24T10:20:10;6.55;;;5.25;;
36243;SDS011;22284;49.956;19.816;2022-07-24T10:23:24;9.68;;;5.60;;
36243;SDS011;22284;49.956;19.816;2022-07-24T10:26:36;9.00;;;5.10;;
36243;SDS011;22284;49.956;19.816;2022-07-24T10:29:55;6.65;;;5.08;;
36243;SDS011;22284;49.956;19.816;2022-07-24T10:33:00;9.48;;;4.80;;
36243;SDS011;22284;49.956;19.816;2022-07-24T10:36:02;8.80;;;4.90;;
36243;SDS011;22284;49.956;19.816;2022-07-24T10:39:14;6.70;;;4.67;;
36243;SDS011;22284;49.956;19.816;2022-07-24T10:42:25;7.17;;;4.37;;
36243;SDS011;22284;49.956;19.816;2022-07-24T10:45:26;7.62;;;4.62;;
36243;SDS011;22284;49.956;19.816;2022-07-24T10:48:34;10.82;;;4.60;;
36243;SDS011;22284;49.956;19.816;2022-07-24T10:51:35;6.15;;;4.08;;
36243;SDS011;22284;49.956;19.816;2022-07-24T10:54:42;6.45;;;4.42;;
36243;SDS011;22284;49.956;19.816;2022-07-24T11:01:26;6.33;;;4.42;;
36243;SDS011;22284;49.956;19.816;2022-07-24T11:07:26;8.25;;;4.22;;
36243;SDS011;22284;49.956;19.816;2022-07-24T11:13:52;8.88;;;4.50;;
36243;SDS011;22284;49.956;19.816;2022-07-24T11:16:57;5.75;;;3.95;;
36243;SDS011;22284;49.956;19.816;2022-07-24T11:19:58;6.90;;;4.25;;
36243;SDS011;22284;49.956;19.816;2022-07-24T11:23:01;8.50;;;4.22;;
36243;SDS011;22284;49.956;19.816;2022-07-24T11:29:38;5.53;;;4.15;;
36243;SDS011;22284;49.956;19.816;2022-07-24T11:32:40;6.22;;;4.40;;
36243;SDS011;22284;49.956;19.816;2022-07-24T11:35:42;4.70;;;4.05;;
36243;SDS011;22284;49.956;19.816;2022-07-24T11:38:43;6.77;;;4.60;;
36243;SDS011;22284;49.956;19.816;2022-07-24T11:41:48;7.60;;;4.60;;
36243;SDS011;22284;49.956;19.816;2022-07-24T11:44:53;12.58;;;4.78;;
36243;SDS011;22284;49.956;19.816;2022-07-24T11:47:53;6.62;;;4.37;;
36243;SDS011;22284;49.956;19.816;2022-07-24T11:51:05;5.87;;;4.15;;
36243;SDS011;22284;49.956;19.816;2022-07-24T11:54:06;7.60;;;5.87;;
36243;SDS011;22284;49.956;19.816;2022-07-24T11:57:15;5.10;;;3.98;;
36243;SDS011;22284;49.956;19.816;2022-07-24T12:00:21;4.92;;;4.37;;
36243;SDS011;22284;49.956;19.816;2022-07-24T12:03:25;6.33;;;4.22;;
36243;SDS011;22284;49.956;19.816;2022-07-24T12:06:28;4.85;;;4.15;;
36243;SDS011;22284;49.956;19.816;2022-07-24T12:09:29;5.67;;;4.23;;
36243;SDS011;22284;49.956;19.816;2022-07-24T12:12:31;5.45;;;4.72;;
36243;SDS011;22284;49.956;19.816;2022-07-24T12:15:37;6.45;;;4.78;;
36243;SDS011;22284;49.956;19.816;2022-07-24T12:18:39;6.05;;;4.42;;
36243;SDS011;22284;49.956;19.816;2022-07-24T12:21:40;7.67;;;4.62;;
36243;SDS011;22284;49.956;19.816;2022-07-24T12:24:43;5.08;;;4.58;;
36243;SDS011;22284;49.956;19.816;2022-07-24T12:27:45;6.58;;;4.45;;
36243;SDS011;22284;49.956;19.816;2022-07-24T12:30:52;8.50;;;4.55;;
36243;SDS011;22284;49.956;19.816;2022-07-24T12:33:55;5.33;;;4.17;;
36243;SDS011;22284;49.956;19.816;2022-07-24T12:36:56;9.08;;;4.47;;
36243;SDS011;22284;49.956;19.816;2022-07-24T12:39:57;6.08;;;4.60;;
36243;SDS011;22284;49.956;19.816;2022-07-24T12:43:03;5.25;;;4.47;;
36243;SDS011;22284;49.956;19.816;2022-07-24T12:46:10;8.10;;;4.90;;
36243;SDS011;22284;49.956;19.816;2022-07-24T12:49:15;6.45;;;4.20;;
36243;SDS011;22284;49.956;19.816;2022-07-24T12:52:24;6.37;;;4.78;;
36243;SDS011;22284;49.956;19.816;2022-07-24T12:55:28;6.60;;;4.60;;
36243;SDS011;22284;49.956;19.816;2022-07-24T12:58:29;6.08;;;4.60;;
36243;SDS011;22284;49.956;19.816;2022-07-24T13:01:44;6.15;;;4.50;;
36243;SDS011;22284;49.956;19.816;2022-07-24T13:04:55;7.92;;;4.80;;
36243;SDS011;22284;49.956;19.816;2022-07-24T13:07:57;4.97;;;4.45;;
36243;SDS011;22284;49.956;19.816;2022-07-24T13:10:58;6.15;;;4.08;;
36243;SDS011;22284;49.956;19.816;2022-07-24T13:13:58;5.45;;;4.00;;
36243;SDS011;22284;49.956;19.816;2022-07-24T13:17:04;5.65;;;4.30;;
36243;SDS011;22284;49.956;19.816;2022-07-24T13:20:06;8.28;;;4.55;;
36243;SDS011;22284;49.956;19.816;2022-07-24T13:23:07;8.70;;;4.30;;
36243;SDS011;22284;49.956;19.816;2022-07-24T13:26:08;5.50;;;4.62;;
36243;SDS011;22284;49.956;19.816;2022-07-24T13:29:09;6.60;;;4.67;;
36243;SDS011;22284;49.956;19.816;2022-07-24T13:32:11;4.85;;;4.35;;
36243;SDS011;22284;49.956;19.816;2022-07-24T13:35:12;7.08;;;4.37;;
36243;SDS011;22284;49.956;19.816;2022-07-24T13:38:13;5.65;;;4.40;;
36243;SDS011;22284;49.956;19.816;2022-07-24T13:41:15;7.53;;;4.70;;
36243;SDS011;22284;49.956;19.816;2022-07-24T13:44:18;11.50;;;4.53;;
36243;SDS011;22284;49.956;19.816;2022-07-24T13:47:19;9.03;;;4.80;;
36243;SDS011;22284;49.956;19.816;2022-07-24T13:50:20;7.37;;;4.40;;
36243;SDS011;22284;49.956;19.816;2022-07-24T13:53:21;6.83;;;4.33;;
36243;SDS011;22284;49.956;19.816;2022-07-24T13:56:23;7.08;;;4.60;;
36243;SDS011;22284;49.956;19.816;2022-07-24T13:59:24;6.00;;;4.20;;
36243;SDS011;22284;49.956;19.816;2022-07-24T14:02:25;4.33;;;3.90;;
36243;SDS011;22284;49.956;19.816;2022-07-24T14:05:26;5.97;;;4.28;;
36243;SDS011;22284;49.956;19.816;2022-07-24T14:08:27;5.78;;;4.20;;
36243;SDS011;22284;49.956;19.816;2022-07-24T14:11:29;6.15;;;3.98;;
36243;SDS011;22284;49.956;19.816;2022-07-24T14:14:30;5.33;;;4.00;;
36243;SDS011;22284;49.956;19.816;2022-07-24T14:17:32;4.42;;;3.87;;
36243;SDS011;22284;49.956;19.816;2022-07-24T14:20:33;5.78;;;4.12;;
36243;SDS011;22284;49.956;19.816;2022-07-24T14:23:34;5.80;;;4.00;;
36243;SDS011;22284;49.956;19.816;2022-07-24T14:26:35;8.80;;;4.05;;
36243;SDS011;22284;49.956;19.816;2022-07-24T14:29:36;6.87;;;4.20;;
36243;SDS011;22284;49.956;19.816;2022-07-24T14:32:37;5.92;;;3.87;;
36243;SDS011;22284;49.956;19.816;2022-07-24T14:35:38;5.10;;;4.20;;
36243;SDS011;22284;49.956;19.816;2022-07-24T14:38:38;7.92;;;4.00;;
36243;SDS011;22284;49.956;19.816;2022-07-24T14:41:40;6.60;;;4.30;;
36243;SDS011;22284;49.956;19.816;2022-07-24T14:44:41;4.00;;;3.67;;
36243;SDS011;22284;49.956;19.816;2022-07-24T14:47:42;4.43;;;4.00;;
36243;SDS011;22284;49.956;19.816;2022-07-24T14:50:43;7.28;;;4.20;;
36243;SDS011;22284;49.956;19.816;2022-07-24T14:53:44;6.72;;;4.53;;
36243;SDS011;22284;49.956;19.816;2022-07-24T14:56:45;4.00;;;3.60;;
36243;SDS011;22284;49.956;19.816;2022-07-24T14:59:46;4.62;;;3.60;;
36243;SDS011;22284;49.956;19.816;2022-07-24T15:02:47;4.20;;;3.47;;
36243;SDS011;22284;49.956;19.816;2022-07-24T15:05:48;4.87;;;3.75;;
36243;SDS011;22284;49.956;19.816;2022-07-24T15:08:49;4.37;;;3.40;;
36243;SDS011;22284;49.956;19.816;2022-07-24T15:11:50;3.87;;;3.47;;
36243;SDS011;22284;49.956;19.816;2022-07-24T15:14:51;5.37;;;3.52;;
36243;SDS011;22284;49.956;19.816;2022-07-24T15:17:52;4.42;;;3.40;;
36243;SDS011;22284;49.956;19.816;2022-07-24T15:20:55;4.10;;;3.40;;
36243;SDS011;22284;49.956;19.816;2022-07-24T15:23:55;4.12;;;3.50;;
36243;SDS011;22284;49.956;19.816;2022-07-24T15:26:56;5.42;;;3.35;;
36243;SDS011;22284;49.956;19.816;2022-07-24T15:29:57;3.90;;;3.23;;
36243;SDS011;22284;49.956;19.816;2022-07-24T15:32:58;7.13;;;3.97;;
36243;SDS011;22284;49.956;19.816;2022-07-24T15:36:00;5.75;;;3.70;;
36243;SDS011;22284;49.956;19.816;2022-07-24T15:39:02;6.97;;;3.47;;
36243;SDS011;22284;49.956;19.816;2022-07-24T15:42:03;6.50;;;3.75;;
36243;SDS011;22284;49.956;19.816;2022-07-24T15:45:05;6.85;;;3.60;;
36243;SDS011;22284;49.956;19.816;2022-07-24T15:48:07;3.50;;;3.20;;
36243;SDS011;22284;49.956;19.816;2022-07-24T15:51:07;4.93;;;3.60;;
36243;SDS011;22284;49.956;19.816;2022-07-24T15:54:08;5.53;;;3.50;;
36243;SDS011;22284;49.956;19.816;2022-07-24T15:57:10;5.72;;;3.50;;
36243;SDS011;22284;49.956;19.816;2022-07-24T16:00:11;4.60;;;3.03;;
36243;SDS011;22284;49.956;19.816;2022-07-24T16:03:12;3.77;;;3.05;;
36243;SDS011;22284;49.956;19.816;2022-07-24T16:06:13;5.47;;;3.40;;
36243;SDS011;22284;49.956;19.816;2022-07-24T16:09:14;6.05;;;3.25;;
36243;SDS011;22284;49.956;19.816;2022-07-24T16:12:16;5.40;;;3.12;;
36243;SDS011;22284;49.956;19.816;2022-07-24T16:15:18;4.22;;;3.02;;
36243;SDS011;22284;49.956;19.816;2022-07-24T16:18:20;3.98;;;2.92;;
36243;SDS011;22284;49.956;19.816;2022-07-24T16:24:22;4.58;;;3.00;;
36243;SDS011;22284;49.956;19.816;2022-07-24T16:27:23;4.83;;;2.90;;
36243;SDS011;22284;49.956;19.816;2022-07-24T16:30:24;3.43;;;2.97;;
36243;SDS011;22284;49.956;19.816;2022-07-24T16:33:26;4.08;;;2.77;;
36243;SDS011;22284;49.956;19.816;2022-07-24T16:36:27;5.23;;;3.03;;
36243;SDS011;22284;49.956;19.816;2022-07-24T16:42:29;3.05;;;2.80;;
36243;SDS011;22284;49.956;19.816;2022-07-24T16:45:31;3.10;;;2.90;;
36243;SDS011;22284;49.956;19.816;2022-07-24T16:48:32;4.47;;;2.70;;
36243;SDS011;22284;49.956;19.816;2022-07-24T16:51:33;4.45;;;2.80;;
36243;SDS011;22284;49.956;19.816;2022-07-24T16:54:34;6.80;;;3.57;;
36243;SDS011;22284;49.956;19.816;2022-07-24T16:57:35;4.70;;;3.03;;
36243;SDS011;22284;49.956;19.816;2022-07-24T17:00:36;4.07;;;2.77;;
36243;SDS011;22284;49.956;19.816;2022-07-24T17:03:36;5.03;;;3.13;;
36243;SDS011;22284;49.956;19.816;2022-07-24T17:06:37;6.87;;;2.80;;
36243;SDS011;22284;49.956;19.816;2022-07-24T17:09:39;3.23;;;2.80;;
36243;SDS011;22284;49.956;19.816;2022-07-24T17:12:39;3.30;;;2.37;;
36243;SDS011;22284;49.956;19.816;2022-07-24T17:15:41;4.60;;;2.53;;
36243;SDS011;22284;49.956;19.816;2022-07-24T17:18:43;4.67;;;2.67;;
36243;SDS011;22284;49.956;19.816;2022-07-24T17:21:45;3.65;;;2.60;;
36243;SDS011;22284;49.956;19.816;2022-07-24T17:24:50;3.35;;;2.70;;
36243;SDS011;22284;49.956;19.816;2022-07-24T17:27:51;2.75;;;2.40;;
36243;SDS011;22284;49.956;19.816;2022-07-24T17:30:52;3.70;;;2.45;;
36243;SDS011;22284;49.956;19.816;2022-07-24T17:33:53;4.83;;;2.87;;
36243;SDS011;22284;49.956;19.816;2022-07-24T17:36:54;4.05;;;2.70;;
36243;SDS011;22284;49.956;19.816;2022-07-24T17:39:55;2.77;;;2.40;;
36243;SDS011;22284;49.956;19.816;2022-07-24T17:42:56;4.35;;;2.70;;
36243;SDS011;22284;49.956;19.816;2022-07-24T17:45:57;5.17;;;2.60;;
36243;SDS011;22284;49.956;19.816;2022-07-24T17:48:58;3.52;;;2.62;;
36243;SDS011;22284;49.956;19.816;2022-07-24T17:51:59;3.52;;;2.50;;
36243;SDS011;22284;49.956;19.816;2022-07-24T17:55:00;4.75;;;2.55;;
36243;SDS011;22284;49.956;19.816;2022-07-24T17:58:02;4.67;;;2.60;;
36243;SDS011;22284;49.956;19.816;2022-07-24T18:01:03;4.60;;;2.90;;
36243;SDS011;22284;49.956;19.816;2022-07-24T18:04:04;5.62;;;2.80;;
36243;SDS011;22284;49.956;19.816;2022-07-24T18:07:05;3.40;;;2.60;;
36243;SDS011;22284;49.956;19.816;2022-07-24T18:10:07;4.22;;;2.98;;
36243;SDS011;22284;49.956;19.816;2022-07-24T18:13:13;4.33;;;2.98;;
36243;SDS011;22284;49.956;19.816;2022-07-24T18:16:13;7.10;;;3.00;;
36243;SDS011;22284;49.956;19.816;2022-07-24T18:19:15;5.70;;;2.80;;
36243;SDS011;22284;49.956;19.816;2022-07-24T18:22:16;2.75;;;2.52;;
36243;SDS011;22284;49.956;19.816;2022-07-24T18:25:17;4.37;;;3.52;;